createdAt,value
2022-08-17T00:01:52.317Z,70.69
2022-08-17T00:04:21.885Z,70.54
2022-08-17T00:06:51.487Z,70.91
2022-08-17T00:09:19.885Z,70.67
2022-08-17T00:12:03.889Z,70.69
2022-08-17T00:14:40.605Z,70.17
2022-08-17T00:17:11.968Z,70.04
2022-08-17T00:19:41.954Z,70.74
2022-08-17T00:22:31.706Z,71.16
2022-08-17T00:25:02.481Z,72.25
2022-08-17T00:27:38.683Z,72.00
2022-08-17T00:30:09.949Z,72.18
2022-08-17T00:33:14.034Z,71.79
2022-08-17T00:35:40.054Z,71.44
2022-08-17T00:38:10.057Z,72.17
2022-08-17T00:40:49.038Z,72.32
2022-08-17T00:43:38.826Z,72.13
2022-08-17T00:46:13.806Z,71.87
2022-08-17T00:48:42.355Z,71.78
2022-08-17T00:51:51.085Z,71.91
2022-08-17T00:54:43.412Z,71.45
2022-08-17T00:57:32.737Z,71.80
2022-08-17T01:00:29.097Z,72.03
2022-08-17T01:03:26.132Z,72.16
2022-08-17T01:05:57.519Z,72.10
2022-08-17T01:08:33.387Z,72.38
2022-08-17T01:11:02.503Z,72.10
2022-08-17T01:13:47.968Z,72.31
2022-08-17T01:16:34.824Z,71.90
2022-08-17T01:19:17.554Z,71.71
2022-08-17T01:22:13.593Z,71.89
2022-08-17T01:24:48.689Z,71.81
2022-08-17T01:27:25.326Z,71.21
2022-08-17T01:29:58.852Z,71.19
2022-08-17T01:32:39.964Z,71.13
2022-08-17T01:35:17.173Z,71.71
2022-08-17T01:37:54.405Z,72.06
2022-08-17T01:40:47.324Z,74.19
2022-08-17T01:44:05.098Z,74.29
2022-08-17T01:46:42.870Z,74.63
2022-08-17T01:49:14.035Z,75.26
2022-08-17T01:51:43.727Z,75.12
2022-08-17T01:54:18.803Z,76.03
2022-08-17T01:56:50.641Z,75.86
2022-08-17T01:59:21.085Z,76.42
2022-08-17T02:01:49.366Z,75.25
2022-08-17T02:04:20.252Z,76.10
2022-08-17T02:06:54.039Z,77.08
2022-08-17T02:09:25.959Z,77.55
2022-08-17T02:11:56.621Z,78.07
2022-08-17T02:14:27.403Z,78.92
2022-08-17T02:16:58.693Z,78.55
2022-08-17T02:19:28.161Z,78.12
2022-08-17T02:21:55.413Z,77.04
2022-08-17T02:24:58.990Z,76.80
2022-08-17T02:27:23.890Z,76.10
2022-08-17T02:30:05.338Z,75.94
2022-08-17T02:32:56.745Z,76.01
2022-08-17T02:35:24.680Z,76.21
2022-08-17T02:37:51.961Z,76.17
2022-08-17T02:40:35.781Z,76.11
2022-08-17T02:43:08.270Z,75.71
2022-08-17T02:45:38.846Z,75.20
2022-08-17T02:48:08.209Z,75.22
2022-08-17T02:50:37.673Z,75.46
2022-08-17T02:53:06.230Z,75.17
2022-08-17T02:55:40.685Z,75.63
2022-08-17T02:58:10.894Z,75.88
2022-08-17T03:00:44.901Z,76.20
2022-08-17T03:03:19.654Z,75.73
2022-08-17T03:05:51.395Z,76.00
2022-08-17T03:08:31.099Z,75.16
2022-08-17T03:10:58.694Z,75.36
2022-08-17T03:13:35.873Z,75.76
2022-08-17T03:16:11.830Z,75.80
2022-08-17T03:18:39.046Z,75.82
2022-08-17T03:21:10.523Z,75.06
2022-08-17T03:23:41.648Z,75.52
2022-08-17T03:26:12.358Z,75.02
2022-08-17T03:28:44.695Z,75.77
2022-08-17T03:31:20.284Z,75.95
2022-08-17T03:33:51.095Z,76.08
2022-08-17T03:36:28.361Z,76.28
2022-08-17T03:38:58.784Z,76.41
2022-08-17T03:41:27.975Z,76.86
2022-08-17T03:44:05.824Z,76.42
2022-08-17T03:46:57.096Z,76.12
2022-08-17T03:49:46.464Z,76.55
2022-08-17T03:52:35.254Z,76.98
2022-08-17T03:55:35.928Z,76.93
2022-08-17T03:58:15.166Z,76.96
2022-08-17T04:00:51.088Z,76.88
2022-08-17T04:03:21.827Z,76.88
2022-08-17T04:05:51.968Z,75.51
2022-08-17T04:08:27.377Z,75.51
2022-08-17T04:10:57.254Z,75.45
2022-08-17T04:13:34.623Z,76.14
2022-08-17T04:16:02.897Z,76.74
2022-08-17T04:18:34.873Z,76.55
2022-08-17T04:21:03.139Z,76.79
2022-08-17T04:23:41.640Z,76.39
2022-08-17T04:26:52.141Z,76.12
2022-08-17T04:29:06.207Z,76.52
2022-08-17T04:31:37.055Z,76.63
2022-08-17T04:34:04.297Z,76.61
2022-08-17T04:36:35.885Z,76.39
2022-08-17T04:39:05.125Z,76.50
2022-08-17T04:41:55.860Z,76.49
2022-08-17T04:47:07.955Z,76.03
2022-08-17T04:49:39.160Z,76.30
2022-08-17T04:52:29.691Z,75.83
2022-08-17T04:55:12.924Z,75.88
2022-08-17T04:57:45.061Z,75.82
2022-08-17T05:00:16.127Z,76.58
2022-08-17T05:02:51.136Z,76.91
2022-08-17T05:05:32.732Z,76.29
2022-08-17T05:08:06.938Z,75.80
2022-08-17T05:10:45.154Z,75.76
2022-08-17T05:13:29.811Z,75.91
2022-08-17T05:16:02.666Z,76.01
2022-08-17T05:18:33.736Z,76.21
2022-08-17T05:21:05.734Z,76.14
2022-08-17T05:23:42.893Z,75.96
2022-08-17T05:26:26.225Z,76.12
2022-08-17T05:28:59.534Z,76.30
2022-08-17T05:31:33.357Z,76.97
2022-08-17T05:34:03.334Z,76.53
2022-08-17T05:36:41.685Z,76.39
2022-08-17T05:39:16.240Z,75.24
2022-08-17T05:41:54.769Z,74.37
2022-08-17T05:44:25.333Z,73.99
2022-08-17T05:46:56.905Z,73.71
2022-08-17T05:49:31.096Z,72.31
2022-08-17T05:52:23.807Z,70.54
2022-08-17T05:55:11.968Z,70.26
2022-08-17T05:58:17.858Z,69.08
2022-08-17T06:01:34.612Z,68.17
2022-08-17T11:08:51.508Z,34.75
2022-08-17T11:11:55.056Z,33.38
2022-08-17T11:14:51.400Z,35.21
2022-08-17T11:17:37.245Z,35.16
2022-08-17T11:20:41.496Z,35.58
2022-08-17T11:23:58.460Z,34.82
2022-08-17T11:26:32.583Z,34.14
2022-08-17T11:29:18.952Z,34.49
2022-08-17T11:32:30.830Z,34.36
2022-08-17T11:35:44.680Z,34.86
2022-08-17T11:38:22.925Z,34.13
2022-08-17T11:41:16.274Z,35.07
2022-08-17T11:44:17.040Z,34.99
2022-08-17T11:47:19.136Z,33.85
2022-08-17T11:50:39.005Z,33.27
2022-08-17T11:53:12.164Z,34.50
2022-08-17T11:55:44.415Z,34.67
2022-08-17T11:58:30.590Z,33.27
2022-08-17T12:01:04.147Z,34.01
2022-08-17T12:03:41.477Z,35.00
2022-08-17T12:06:30.674Z,34.84
2022-08-17T12:09:30.191Z,33.65
2022-08-17T12:12:14.428Z,33.83
2022-08-17T12:17:59.283Z,33.61
2022-08-17T12:20:36.551Z,34.35
2022-08-17T12:23:33.871Z,34.11
2022-08-17T12:26:19.807Z,34.14
2022-08-17T12:28:58.254Z,33.84
2022-08-17T12:31:58.436Z,35.69
2022-08-17T12:34:39.094Z,34.67
2022-08-17T12:37:19.095Z,34.76
2022-08-17T12:40:18.188Z,33.84
2022-08-17T12:42:58.548Z,33.92
2022-08-17T12:45:44.851Z,34.34
2022-08-17T12:48:26.557Z,33.75
2022-08-17T12:51:03.384Z,33.08
2022-08-17T12:53:35.379Z,34.58
2022-08-17T12:56:13.234Z,34.50
2022-08-17T12:58:50.871Z,34.83
2022-08-17T13:01:18.914Z,34.94
2022-08-17T13:03:52.745Z,34.98
2022-08-17T13:06:33.403Z,34.20
2022-08-17T13:09:18.858Z,34.24
2022-08-17T13:11:56.439Z,33.77
2022-08-17T13:14:23.601Z,34.51
2022-08-17T13:17:02.396Z,35.13
2022-08-17T13:19:40.897Z,34.46
2022-08-17T13:22:13.622Z,33.67
2022-08-17T13:24:53.819Z,33.67
2022-08-17T13:27:23.783Z,33.97
2022-08-17T13:29:58.597Z,33.49
2022-08-17T13:32:33.905Z,33.53
2022-08-17T13:35:15.428Z,34.13
2022-08-17T13:38:17.290Z,34.08
2022-08-17T13:40:57.166Z,34.52
2022-08-17T13:43:43.012Z,34.47
2022-08-17T13:46:33.380Z,34.84
2022-08-17T13:49:04.504Z,34.54
2022-08-17T13:51:34.265Z,34.67
2022-08-17T13:54:05.768Z,34.50
2022-08-17T13:56:50.118Z,35.27
2022-08-17T13:59:53.856Z,34.92
2022-08-17T14:02:28.044Z,35.31
2022-08-17T14:05:01.126Z,35.27
2022-08-17T14:07:43.996Z,35.51
2022-08-17T14:10:20.727Z,34.60
2022-08-17T14:12:57.834Z,35.13
2022-08-17T14:15:55.725Z,34.88
2022-08-17T14:18:18.887Z,35.59
2022-08-17T14:21:10.803Z,35.21
2022-08-17T14:23:38.976Z,35.74
2022-08-17T14:26:07.119Z,36.38
2022-08-17T14:28:37.728Z,36.77
2022-08-17T14:31:13.339Z,36.11
2022-08-17T14:33:43.583Z,36.68
2022-08-17T14:36:12.297Z,36.57
2022-08-17T14:38:39.838Z,35.85
2022-08-17T14:41:10.843Z,35.76
2022-08-17T14:43:40.507Z,35.66
2022-08-17T14:46:07.687Z,35.47
2022-08-17T14:48:39.728Z,35.79
2022-08-17T14:51:10.475Z,35.75
2022-08-17T14:53:38.926Z,35.75
2022-08-17T14:56:09.166Z,36.71
2022-08-17T14:58:38.621Z,35.89
2022-08-17T15:01:12.780Z,36.10
2022-08-17T15:03:44.372Z,35.32
2022-08-17T15:06:18.658Z,36.27
2022-08-17T15:08:48.687Z,35.45
2022-08-17T15:11:16.345Z,35.16
2022-08-17T15:13:52.914Z,35.28
2022-08-17T15:16:23.498Z,34.93
2022-08-17T15:18:53.600Z,35.37
2022-08-17T15:21:24.442Z,35.15
2022-08-17T15:23:54.789Z,35.09
2022-08-17T15:26:26.351Z,35.20
2022-08-17T15:28:58.859Z,35.12
2022-08-17T15:31:31.916Z,35.54
2022-08-17T15:34:02.508Z,35.23
2022-08-17T15:36:30.058Z,35.37
2022-08-17T15:38:59.163Z,35.35
2022-08-17T15:41:37.475Z,35.50
2022-08-17T15:44:08.905Z,35.13
2022-08-17T15:46:36.961Z,35.17
2022-08-17T15:49:04.871Z,35.37
2022-08-17T15:51:35.730Z,35.73
2022-08-17T15:54:19.392Z,35.00
2022-08-17T15:56:54.175Z,35.31
2022-08-17T15:59:27.197Z,35.67
2022-08-17T16:03:01.470Z,36.29
2022-08-17T16:04:56.523Z,35.72
2022-08-17T16:07:26.864Z,36.36
2022-08-17T16:09:55.463Z,35.97
2022-08-17T16:12:23.066Z,36.28
2022-08-17T16:14:56.992Z,36.17
2022-08-17T16:17:38.888Z,36.12
2022-08-17T16:20:19.576Z,36.02
2022-08-17T16:22:51.932Z,36.59
2022-08-17T16:25:23.419Z,36.16
2022-08-17T16:28:14.389Z,36.02
2022-08-17T16:30:45.352Z,35.99
2022-08-17T16:33:13.786Z,36.57
2022-08-17T16:35:44.458Z,36.42
2022-08-17T16:38:13.179Z,36.29
2022-08-17T16:40:44.399Z,36.22
2022-08-17T16:43:13.770Z,36.77
2022-08-17T16:45:41.158Z,37.04
2022-08-17T16:48:10.562Z,37.46
2022-08-17T16:50:39.027Z,37.04
2022-08-17T16:53:18.337Z,37.63
2022-08-17T16:56:12.118Z,37.03
2022-08-17T16:58:40.494Z,37.15
2022-08-17T17:01:11.075Z,37.63
2022-08-17T17:03:44.369Z,37.53
2022-08-17T17:06:37.601Z,38.06
2022-08-17T17:09:13.675Z,37.91
2022-08-17T17:11:46.078Z,38.46
2022-08-17T17:14:30.669Z,38.18
2022-08-17T17:17:08.771Z,38.55
2022-08-17T17:20:09.028Z,39.20
2022-08-17T17:23:29.409Z,39.01
2022-08-17T17:26:06.400Z,39.64
2022-08-17T17:28:54.182Z,39.70
2022-08-17T17:31:25.673Z,40.00
2022-08-17T17:34:00.641Z,39.79
2022-08-17T17:36:59.241Z,40.36
2022-08-17T17:39:44.523Z,40.82
2022-08-17T17:42:20.276Z,41.28
2022-08-17T17:45:18.617Z,41.38
2022-08-17T17:47:46.071Z,41.80
2022-08-17T17:50:18.518Z,41.97
2022-08-17T17:53:12.028Z,41.72
2022-08-17T17:56:43.263Z,41.86
2022-08-17T17:59:44.476Z,42.32
2022-08-17T18:02:51.477Z,42.87
2022-08-17T18:06:01.404Z,43.55
2022-08-17T18:09:06.301Z,44.10
2022-08-17T18:12:19.327Z,44.11
2022-08-17T18:15:19.284Z,43.72
2022-08-17T18:18:15.046Z,43.63
2022-08-17T18:20:53.852Z,44.15
2022-08-17T18:23:28.044Z,43.83
2022-08-17T18:26:02.399Z,43.79
2022-08-17T18:28:58.789Z,43.95
2022-08-17T18:31:27.138Z,43.82
2022-08-17T18:34:36.047Z,43.90
2022-08-17T18:37:05.683Z,43.96
2022-08-17T18:39:33.259Z,44.73
2022-08-17T18:42:04.558Z,44.68
2022-08-17T18:44:55.318Z,45.45
2022-08-17T18:47:31.199Z,45.34
2022-08-17T18:50:30.012Z,45.69
2022-08-17T18:53:35.697Z,46.42
2022-08-17T18:56:30.939Z,47.60
2022-08-17T18:59:39.767Z,48.76
2022-08-17T19:02:45.023Z,48.94
2022-08-17T19:05:39.200Z,49.49
2022-08-17T19:08:32.428Z,49.97
2022-08-17T19:11:28.584Z,51.70
2022-08-17T19:14:30.000Z,50.31
2022-08-17T19:17:22.743Z,49.61
2022-08-17T19:20:24.037Z,50.10
2022-08-17T19:23:39.524Z,50.49
2022-08-17T19:26:55.276Z,50.72
2022-08-17T19:29:28.873Z,50.24
2022-08-17T19:31:59.065Z,50.58
2022-08-17T19:34:34.603Z,51.08
2022-08-17T19:37:26.297Z,50.82
2022-08-17T19:40:52.286Z,51.56
2022-08-17T19:44:02.781Z,50.84
2022-08-17T19:47:01.897Z,50.83
2022-08-17T19:49:41.832Z,51.32
2022-08-17T19:52:26.805Z,51.20
2022-08-17T19:55:26.971Z,50.93
2022-08-17T19:58:17.737Z,50.90
2022-08-17T20:00:52.557Z,51.20
2022-08-17T20:03:56.539Z,51.11
2022-08-17T20:06:28.547Z,51.15
2022-08-17T20:09:24.645Z,50.74
2022-08-17T20:12:04.139Z,50.90
2022-08-17T20:14:37.978Z,50.70
2022-08-17T20:17:09.259Z,51.19
2022-08-17T20:20:04.307Z,51.02
2022-08-17T20:22:51.845Z,51.03
2022-08-17T20:25:50.067Z,51.21
2022-08-17T20:28:30.946Z,51.21
2022-08-17T20:30:59.573Z,51.58
2022-08-17T20:33:38.456Z,51.42
2022-08-17T20:36:26.346Z,51.44
2022-08-17T20:38:59.264Z,52.04
2022-08-17T20:41:30.369Z,52.00
2022-08-17T20:43:57.979Z,52.52
2022-08-17T20:46:59.734Z,52.61
2022-08-17T20:49:52.489Z,52.51
2022-08-17T20:52:46.221Z,53.45
2022-08-17T20:55:52.621Z,52.77
2022-08-17T20:58:34.104Z,53.22
2022-08-17T21:01:22.491Z,52.91
2022-08-17T21:03:51.883Z,53.81
2022-08-17T21:06:23.085Z,53.72
2022-08-17T21:08:55.035Z,53.90
2022-08-17T21:12:02.934Z,53.42
2022-08-17T21:14:52.737Z,53.70
2022-08-17T21:17:39.512Z,53.73
2022-08-17T21:20:26.622Z,53.80
2022-08-17T21:23:40.701Z,53.76
2022-08-17T21:26:50.762Z,53.88
2022-08-17T21:29:32.339Z,53.36
2022-08-17T21:32:05.389Z,53.34
2022-08-17T21:35:11.194Z,53.51
2022-08-17T21:37:51.394Z,54.46
2022-08-17T21:40:26.852Z,55.17
2022-08-17T21:43:00.276Z,55.00
2022-08-17T21:45:43.104Z,54.92
2022-08-17T21:48:26.950Z,54.97
2022-08-17T21:51:31.003Z,54.77
2022-08-17T21:54:05.542Z,54.78
2022-08-17T21:56:41.020Z,54.57
2022-08-17T21:59:28.022Z,54.45
2022-08-17T22:02:04.617Z,54.50
2022-08-17T22:04:33.520Z,54.06
2022-08-17T22:07:03.107Z,54.15
2022-08-17T22:09:34.711Z,53.71
2022-08-17T22:12:22.096Z,54.08
2022-08-17T22:15:08.450Z,54.01
2022-08-17T22:17:49.227Z,53.96
2022-08-17T22:20:21.239Z,54.28
2022-08-17T22:23:11.587Z,54.46
2022-08-17T22:25:56.776Z,54.45
2022-08-17T22:28:48.702Z,54.66
2022-08-17T22:31:23.018Z,54.71
2022-08-17T22:34:13.261Z,54.93
2022-08-17T22:36:44.615Z,54.72
2022-08-17T22:39:14.786Z,54.82
2022-08-17T22:41:50.570Z,54.70
2022-08-17T22:44:29.871Z,55.09
2022-08-17T22:47:44.080Z,54.97
2022-08-17T22:50:30.581Z,55.40
2022-08-17T22:53:33.159Z,55.82
2022-08-17T22:56:30.042Z,55.46
2022-08-17T22:59:20.674Z,55.56
2022-08-17T23:02:28.991Z,55.55
2022-08-17T23:05:24.131Z,55.51
2022-08-17T23:07:53.507Z,55.63
2022-08-17T23:10:23.900Z,56.08
2022-08-17T23:12:51.033Z,56.20
2022-08-17T23:15:21.840Z,56.44
2022-08-17T23:17:50.486Z,56.34
2022-08-17T23:20:19.502Z,56.87
2022-08-17T23:22:52.040Z,56.55
2022-08-17T23:25:34.125Z,57.07
2022-08-17T23:28:04.470Z,57.25
2022-08-17T23:30:39.174Z,57.47
2022-08-17T23:33:10.663Z,57.74
2022-08-17T23:35:41.131Z,57.78
2022-08-17T23:38:14.471Z,57.89
2022-08-17T23:40:44.282Z,57.89
2022-08-17T23:43:25.121Z,58.10
2022-08-17T23:45:59.872Z,58.39
2022-08-17T23:48:35.748Z,58.66
2022-08-17T23:51:14.791Z,58.57
2022-08-17T23:53:49.796Z,58.71
2022-08-17T23:56:25.953Z,58.62
2022-08-17T23:58:56.329Z,59.03
